Аэропорт: Казань. Казань

ICAO: UWKD

METAR:
2019-07-24 01:00:00
UWKD 240100Z 02004MPS CAVOK 10/09 Q1017 R29/CLRD70 NOSIG RMK QFE751/1002
METAR:
2019-07-23 23:00:00
TAF UWKD 232300Z 2400/2424 02003MPS 3100 BR BKN020 TX25/2412Z TN12/2401Z TEMPO 2401/2404 0500 FG VV002 BECMG 2404/2405 9999 NSW